sensor_id;sensor_type;location;lat;lon;timestamp;temperature;humidity
22966;DHT22;11649;48.090;9.754;2023-03-11T00:02:07;3.20;99.90
22966;DHT22;11649;48.090;9.754;2023-03-11T00:04:34;3.30;99.90
22966;DHT22;11649;48.090;9.754;2023-03-11T00:07:02;3.30;99.90
22966;DHT22;11649;48.090;9.754;2023-03-11T00:09:31;3.30;99.90
22966;DHT22;11649;48.090;9.754;2023-03-11T00:11:57;3.30;99.90
22966;DHT22;11649;48.090;9.754;2023-03-11T00:14:24;3.30;99.90
22966;DHT22;11649;48.090;9.754;2023-03-11T00:16:51;3.30;99.90
22966;DHT22;11649;48.090;9.754;2023-03-11T00:19:18;3.30;99.90
22966;DHT22;11649;48.090;9.754;2023-03-11T00:21:45;3.20;99.90
22966;DHT22;11649;48.090;9.754;2023-03-11T00:24:11;3.20;99.90
22966;DHT22;11649;48.090;9.754;2023-03-11T00:26:38;3.20;99.90
22966;DHT22;11649;48.090;9.754;2023-03-11T00:29:05;3.30;99.90
22966;DHT22;11649;48.090;9.754;2023-03-11T00:31:32;3.30;99.90
22966;DHT22;11649;48.090;9.754;2023-03-11T00:33:58;3.30;99.90
22966;DHT22;11649;48.090;9.754;2023-03-11T00:36:34;3.30;99.90
22966;DHT22;11649;48.090;9.754;2023-03-11T00:39:02;3.30;99.90
22966;DHT22;11649;48.090;9.754;2023-03-11T00:41:33;3.30;99.90
22966;DHT22;11649;48.090;9.754;2023-03-11T00:44:00;3.30;99.90
22966;DHT22;11649;48.090;9.754;2023-03-11T00:46:26;3.30;99.90
22966;DHT22;11649;48.090;9.754;2023-03-11T00:48:55;3.30;99.90
22966;DHT22;11649;48.090;9.754;2023-03-11T00:51:22;3.30;99.90
22966;DHT22;11649;48.090;9.754;2023-03-11T00:53:49;3.30;99.90
22966;DHT22;11649;48.090;9.754;2023-03-11T00:56:16;3.30;99.90
22966;DHT22;11649;48.090;9.754;2023-03-11T00:58:43;3.30;99.90
22966;DHT22;11649;48.090;9.754;2023-03-11T01:01:16;3.30;99.90
22966;DHT22;11649;48.090;9.754;2023-03-11T01:03:43;3.30;99.90
22966;DHT22;11649;48.090;9.754;2023-03-11T01:06:11;3.30;99.90
22966;DHT22;11649;48.090;9.754;2023-03-11T01:08:38;3.30;99.90
22966;DHT22;11649;48.090;9.754;2023-03-11T01:11:06;3.30;99.90
22966;DHT22;11649;48.090;9.754;2023-03-11T01:13:33;3.30;99.90
22966;DHT22;11649;48.090;9.754;2023-03-11T01:16:00;3.30;99.90
22966;DHT22;11649;48.090;9.754;2023-03-11T01:18:27;3.30;99.90
22966;DHT22;11649;48.090;9.754;2023-03-11T01:20:54;3.30;99.90
22966;DHT22;11649;48.090;9.754;2023-03-11T01:23:21;3.30;99.90
22966;DHT22;11649;48.090;9.754;2023-03-11T01:25:48;3.30;99.90
22966;DHT22;11649;48.090;9.754;2023-03-11T01:28:15;3.30;99.90
22966;DHT22;11649;48.090;9.754;2023-03-11T01:30:43;3.30;99.90
22966;DHT22;11649;48.090;9.754;2023-03-11T01:33:15;3.30;99.90
22966;DHT22;11649;48.090;9.754;2023-03-11T01:35:43;3.30;99.90
22966;DHT22;11649;48.090;9.754;2023-03-11T01:38:11;3.30;99.90
22966;DHT22;11649;48.090;9.754;2023-03-11T01:40:49;3.30;99.90
22966;DHT22;11649;48.090;9.754;2023-03-11T01:46:26;3.10;99.90
22966;DHT22;11649;48.090;9.754;2023-03-11T01:48:55;3.10;99.90
22966;DHT22;11649;48.090;9.754;2023-03-11T01:51:36;3.10;99.90
22966;DHT22;11649;48.090;9.754;2023-03-11T01:54:07;3.10;99.90
22966;DHT22;11649;48.090;9.754;2023-03-11T01:56:37;3.00;99.90
22966;DHT22;11649;48.090;9.754;2023-03-11T01:59:07;3.00;99.90
22966;DHT22;11649;48.090;9.754;2023-03-11T02:01:40;2.90;99.90
22966;DHT22;11649;48.090;9.754;2023-03-11T02:04:09;2.90;99.90
22966;DHT22;11649;48.090;9.754;2023-03-11T02:06:36;2.90;99.90
22966;DHT22;11649;48.090;9.754;2023-03-11T02:09:03;2.90;99.90
22966;DHT22;11649;48.090;9.754;2023-03-11T02:11:30;2.90;99.90
22966;DHT22;11649;48.090;9.754;2023-03-11T02:14:01;2.90;99.90
22966;DHT22;11649;48.090;9.754;2023-03-11T02:16:28;2.90;99.90
22966;DHT22;11649;48.090;9.754;2023-03-11T02:18:59;2.90;99.90
22966;DHT22;11649;48.090;9.754;2023-03-11T02:21:32;2.90;99.90
22966;DHT22;11649;48.090;9.754;2023-03-11T02:24:21;2.90;99.90
22966;DHT22;11649;48.090;9.754;2023-03-11T02:27:05;3.00;99.90
22966;DHT22;11649;48.090;9.754;2023-03-11T02:29:33;2.90;99.90
22966;DHT22;11649;48.090;9.754;2023-03-11T02:32:03;3.00;99.90
22966;DHT22;11649;48.090;9.754;2023-03-11T02:34:33;2.90;99.90
22966;DHT22;11649;48.090;9.754;2023-03-11T02:37:03;3.00;99.90
22966;DHT22;11649;48.090;9.754;2023-03-11T02:39:31;3.00;99.90
22966;DHT22;11649;48.090;9.754;2023-03-11T02:41:59;3.00;99.90
22966;DHT22;11649;48.090;9.754;2023-03-11T02:44:28;3.00;99.90
22966;DHT22;11649;48.090;9.754;2023-03-11T02:46:55;3.00;99.90
22966;DHT22;11649;48.090;9.754;2023-03-11T02:49:22;3.00;99.90
22966;DHT22;11649;48.090;9.754;2023-03-11T02:51:49;3.00;99.90
22966;DHT22;11649;48.090;9.754;2023-03-11T02:54:17;2.90;99.90
22966;DHT22;11649;48.090;9.754;2023-03-11T02:56:44;2.90;99.90
22966;DHT22;11649;48.090;9.754;2023-03-11T02:59:11;2.80;99.90
22966;DHT22;11649;48.090;9.754;2023-03-11T03:01:38;2.80;99.90
22966;DHT22;11649;48.090;9.754;2023-03-11T03:04:04;2.80;99.90
22966;DHT22;11649;48.090;9.754;2023-03-11T03:06:31;2.80;99.90
22966;DHT22;11649;48.090;9.754;2023-03-11T03:08:58;2.80;99.90
22966;DHT22;11649;48.090;9.754;2023-03-11T03:11:25;2.80;99.90
22966;DHT22;11649;48.090;9.754;2023-03-11T03:13:52;2.80;99.90
22966;DHT22;11649;48.090;9.754;2023-03-11T03:16:18;2.80;99.90
22966;DHT22;11649;48.090;9.754;2023-03-11T03:18:45;2.80;99.90
22966;DHT22;11649;48.090;9.754;2023-03-11T03:21:12;2.80;99.90
22966;DHT22;11649;48.090;9.754;2023-03-11T03:23:39;2.80;99.90
22966;DHT22;11649;48.090;9.754;2023-03-11T03:26:05;2.70;99.90
22966;DHT22;11649;48.090;9.754;2023-03-11T03:28:32;2.70;99.90
22966;DHT22;11649;48.090;9.754;2023-03-11T03:31:04;2.70;99.90
22966;DHT22;11649;48.090;9.754;2023-03-11T03:33:31;2.60;99.90
22966;DHT22;11649;48.090;9.754;2023-03-11T03:35:58;2.50;99.90
22966;DHT22;11649;48.090;9.754;2023-03-11T03:38:25;2.50;99.90
22966;DHT22;11649;48.090;9.754;2023-03-11T03:40:51;2.40;99.90
22966;DHT22;11649;48.090;9.754;2023-03-11T03:43:18;2.50;99.90
22966;DHT22;11649;48.090;9.754;2023-03-11T03:45:45;2.50;99.90
22966;DHT22;11649;48.090;9.754;2023-03-11T03:48:20;2.50;99.90
22966;DHT22;11649;48.090;9.754;2023-03-11T03:50:46;2.50;99.90
22966;DHT22;11649;48.090;9.754;2023-03-11T03:53:13;2.40;99.90
22966;DHT22;11649;48.090;9.754;2023-03-11T03:55:40;2.30;99.90
22966;DHT22;11649;48.090;9.754;2023-03-11T03:58:07;2.30;99.90
22966;DHT22;11649;48.090;9.754;2023-03-11T04:00:34;2.30;99.90
22966;DHT22;11649;48.090;9.754;2023-03-11T04:03:01;2.30;99.90
22966;DHT22;11649;48.090;9.754;2023-03-11T04:05:28;2.30;99.90
22966;DHT22;11649;48.090;9.754;2023-03-11T04:07:54;2.30;99.90
22966;DHT22;11649;48.090;9.754;2023-03-11T04:10:21;2.40;99.90
22966;DHT22;11649;48.090;9.754;2023-03-11T04:12:48;2.40;99.90
22966;DHT22;11649;48.090;9.754;2023-03-11T04:15:15;2.40;99.90
22966;DHT22;11649;48.090;9.754;2023-03-11T04:17:41;2.40;99.90
22966;DHT22;11649;48.090;9.754;2023-03-11T04:20:09;2.40;99.90
22966;DHT22;11649;48.090;9.754;2023-03-11T04:22:36;2.40;99.90
22966;DHT22;11649;48.090;9.754;2023-03-11T04:25:03;2.50;99.90
22966;DHT22;11649;48.090;9.754;2023-03-11T04:27:29;2.50;99.90
22966;DHT22;11649;48.090;9.754;2023-03-11T04:29:56;2.50;99.90
22966;DHT22;11649;48.090;9.754;2023-03-11T04:32:25;2.50;99.90
22966;DHT22;11649;48.090;9.754;2023-03-11T04:34:52;2.60;99.90
22966;DHT22;11649;48.090;9.754;2023-03-11T04:37:18;2.50;99.90
22966;DHT22;11649;48.090;9.754;2023-03-11T04:39:45;2.50;99.90
22966;DHT22;11649;48.090;9.754;2023-03-11T04:42:12;2.50;99.90
22966;DHT22;11649;48.090;9.754;2023-03-11T04:44:39;2.40;99.90
22966;DHT22;11649;48.090;9.754;2023-03-11T04:47:06;2.40;99.90
22966;DHT22;11649;48.090;9.754;2023-03-11T04:49:33;2.40;99.90
22966;DHT22;11649;48.090;9.754;2023-03-11T04:52:00;2.40;99.90
22966;DHT22;11649;48.090;9.754;2023-03-11T04:54:26;2.40;99.90
22966;DHT22;11649;48.090;9.754;2023-03-11T04:56:53;2.40;99.90
22966;DHT22;11649;48.090;9.754;2023-03-11T04:59:20;2.40;99.90
22966;DHT22;11649;48.090;9.754;2023-03-11T05:01:47;2.30;99.90
22966;DHT22;11649;48.090;9.754;2023-03-11T05:04:14;2.20;99.90
22966;DHT22;11649;48.090;9.754;2023-03-11T05:06:41;2.20;99.90
22966;DHT22;11649;48.090;9.754;2023-03-11T05:09:07;2.10;99.90
22966;DHT22;11649;48.090;9.754;2023-03-11T05:11:34;2.00;99.90
22966;DHT22;11649;48.090;9.754;2023-03-11T05:14:01;2.00;99.90
22966;DHT22;11649;48.090;9.754;2023-03-11T05:16:28;1.90;99.90
22966;DHT22;11649;48.090;9.754;2023-03-11T05:18:55;1.90;99.90
22966;DHT22;11649;48.090;9.754;2023-03-11T05:21:22;1.90;99.90
22966;DHT22;11649;48.090;9.754;2023-03-11T05:23:48;1.90;99.90
22966;DHT22;11649;48.090;9.754;2023-03-11T05:26:15;1.80;99.90
22966;DHT22;11649;48.090;9.754;2023-03-11T05:28:42;1.80;99.90
22966;DHT22;11649;48.090;9.754;2023-03-11T05:31:09;1.80;99.90
22966;DHT22;11649;48.090;9.754;2023-03-11T05:33:36;1.70;99.90
22966;DHT22;11649;48.090;9.754;2023-03-11T05:36:05;1.70;99.90
22966;DHT22;11649;48.090;9.754;2023-03-11T05:38:34;1.70;99.90
22966;DHT22;11649;48.090;9.754;2023-03-11T05:41:01;1.70;99.90
22966;DHT22;11649;48.090;9.754;2023-03-11T05:43:28;1.70;99.90
22966;DHT22;11649;48.090;9.754;2023-03-11T05:45:55;1.60;99.90
22966;DHT22;11649;48.090;9.754;2023-03-11T05:48:22;1.70;99.90
22966;DHT22;11649;48.090;9.754;2023-03-11T05:50:48;1.60;99.90
22966;DHT22;11649;48.090;9.754;2023-03-11T05:53:15;1.60;99.90
22966;DHT22;11649;48.090;9.754;2023-03-11T05:55:42;1.60;99.90
22966;DHT22;11649;48.090;9.754;2023-03-11T05:58:09;1.60;99.90
22966;DHT22;11649;48.090;9.754;2023-03-11T06:00:35;1.50;99.90
22966;DHT22;11649;48.090;9.754;2023-03-11T06:03:02;1.60;99.90
22966;DHT22;11649;48.090;9.754;2023-03-11T06:05:29;1.50;99.90
22966;DHT22;11649;48.090;9.754;2023-03-11T06:07:56;1.50;99.90
22966;DHT22;11649;48.090;9.754;2023-03-11T06:10:22;1.50;99.90
22966;DHT22;11649;48.090;9.754;2023-03-11T06:12:49;1.60;99.90
22966;DHT22;11649;48.090;9.754;2023-03-11T06:15:16;1.60;99.90
22966;DHT22;11649;48.090;9.754;2023-03-11T06:17:43;1.60;99.90
22966;DHT22;11649;48.090;9.754;2023-03-11T06:20:10;1.70;99.90
22966;DHT22;11649;48.090;9.754;2023-03-11T06:22:37;1.80;99.90
22966;DHT22;11649;48.090;9.754;2023-03-11T06:25:06;1.80;99.90
22966;DHT22;11649;48.090;9.754;2023-03-11T06:27:33;1.90;99.90
22966;DHT22;11649;48.090;9.754;2023-03-11T06:30:00;2.00;99.90
22966;DHT22;11649;48.090;9.754;2023-03-11T06:32:27;2.00;99.90
22966;DHT22;11649;48.090;9.754;2023-03-11T06:34:55;2.10;99.90
22966;DHT22;11649;48.090;9.754;2023-03-11T06:37:22;2.20;99.90
22966;DHT22;11649;48.090;9.754;2023-03-11T06:39:54;2.20;99.90
22966;DHT22;11649;48.090;9.754;2023-03-11T06:42:21;2.20;99.90
22966;DHT22;11649;48.090;9.754;2023-03-11T06:44:50;2.20;99.90
22966;DHT22;11649;48.090;9.754;2023-03-11T06:47:17;2.20;99.90
22966;DHT22;11649;48.090;9.754;2023-03-11T06:49:44;2.30;99.90
22966;DHT22;11649;48.090;9.754;2023-03-11T06:52:11;2.30;99.90
22966;DHT22;11649;48.090;9.754;2023-03-11T06:54:37;2.30;99.90
22966;DHT22;11649;48.090;9.754;2023-03-11T06:57:07;2.40;99.90
22966;DHT22;11649;48.090;9.754;2023-03-11T06:59:34;2.50;99.90
22966;DHT22;11649;48.090;9.754;2023-03-11T07:02:02;2.50;99.90
22966;DHT22;11649;48.090;9.754;2023-03-11T07:04:29;2.60;99.90
22966;DHT22;11649;48.090;9.754;2023-03-11T07:06:57;2.70;99.90
22966;DHT22;11649;48.090;9.754;2023-03-11T07:09:23;2.80;99.90
22966;DHT22;11649;48.090;9.754;2023-03-11T07:11:51;2.80;99.90
22966;DHT22;11649;48.090;9.754;2023-03-11T07:14:18;2.80;99.90
22966;DHT22;11649;48.090;9.754;2023-03-11T07:16:45;2.90;99.90
22966;DHT22;11649;48.090;9.754;2023-03-11T07:19:12;2.90;99.90
22966;DHT22;11649;48.090;9.754;2023-03-11T07:21:39;3.00;99.90
22966;DHT22;11649;48.090;9.754;2023-03-11T07:24:06;3.00;99.90
22966;DHT22;11649;48.090;9.754;2023-03-11T07:26:34;3.10;99.90
22966;DHT22;11649;48.090;9.754;2023-03-11T07:29:01;3.10;99.80
22966;DHT22;11649;48.090;9.754;2023-03-11T07:31:30;3.10;99.90
22966;DHT22;11649;48.090;9.754;2023-03-11T07:33:59;3.10;98.80
22966;DHT22;11649;48.090;9.754;2023-03-11T07:36:27;3.10;99.30
22966;DHT22;11649;48.090;9.754;2023-03-11T07:38:56;3.10;99.70
22966;DHT22;11649;48.090;9.754;2023-03-11T07:41:31;3.20;98.60
22966;DHT22;11649;48.090;9.754;2023-03-11T07:44:00;3.20;99.00
22966;DHT22;11649;48.090;9.754;2023-03-11T07:46:28;3.30;98.20
22966;DHT22;11649;48.090;9.754;2023-03-11T07:48:56;3.30;97.60
22966;DHT22;11649;48.090;9.754;2023-03-11T07:51:27;3.30;96.70
22966;DHT22;11649;48.090;9.754;2023-03-11T07:53:56;3.40;97.40
22966;DHT22;11649;48.090;9.754;2023-03-11T07:56:26;3.40;97.60
22966;DHT22;11649;48.090;9.754;2023-03-11T07:58:53;3.50;96.60
22966;DHT22;11649;48.090;9.754;2023-03-11T08:01:22;3.50;96.90
22966;DHT22;11649;48.090;9.754;2023-03-11T08:03:50;3.60;95.50
22966;DHT22;11649;48.090;9.754;2023-03-11T08:06:25;3.60;95.40
22966;DHT22;11649;48.090;9.754;2023-03-11T08:08:52;3.60;95.40
22966;DHT22;11649;48.090;9.754;2023-03-11T08:11:19;3.60;95.10
22966;DHT22;11649;48.090;9.754;2023-03-11T08:13:47;3.70;95.10
22966;DHT22;11649;48.090;9.754;2023-03-11T08:16:17;3.70;94.90
22966;DHT22;11649;48.090;9.754;2023-03-11T08:18:46;3.80;94.80
22966;DHT22;11649;48.090;9.754;2023-03-11T08:21:15;3.80;94.80
22966;DHT22;11649;48.090;9.754;2023-03-11T08:23:43;3.90;94.50
22966;DHT22;11649;48.090;9.754;2023-03-11T08:26:14;4.00;93.40
22966;DHT22;11649;48.090;9.754;2023-03-11T08:28:41;4.00;92.30
22966;DHT22;11649;48.090;9.754;2023-03-11T08:31:20;4.10;92.70
22966;DHT22;11649;48.090;9.754;2023-03-11T08:33:49;4.10;92.50
22966;DHT22;11649;48.090;9.754;2023-03-11T08:36:17;4.20;92.20
22966;DHT22;11649;48.090;9.754;2023-03-11T08:38:44;4.20;92.10
22966;DHT22;11649;48.090;9.754;2023-03-11T08:41:12;4.20;91.40
22966;DHT22;11649;48.090;9.754;2023-03-11T08:43:39;4.20;90.00
22966;DHT22;11649;48.090;9.754;2023-03-11T08:46:06;4.20;91.90
22966;DHT22;11649;48.090;9.754;2023-03-11T08:48:35;4.30;92.00
22966;DHT22;11649;48.090;9.754;2023-03-11T08:51:08;4.60;92.80
22966;DHT22;11649;48.090;9.754;2023-03-11T08:53:35;4.70;89.60
22966;DHT22;11649;48.090;9.754;2023-03-11T08:56:03;4.70;90.00
22966;DHT22;11649;48.090;9.754;2023-03-11T08:58:30;4.70;80.20
22966;DHT22;11649;48.090;9.754;2023-03-11T09:00:57;4.70;83.60
22966;DHT22;11649;48.090;9.754;2023-03-11T09:03:24;4.80;83.80
22966;DHT22;11649;48.090;9.754;2023-03-11T09:06:05;4.70;85.60
22966;DHT22;11649;48.090;9.754;2023-03-11T09:08:33;4.90;83.20
22966;DHT22;11649;48.090;9.754;2023-03-11T09:11:00;5.10;83.50
22966;DHT22;11649;48.090;9.754;2023-03-11T09:13:27;5.30;78.10
22966;DHT22;11649;48.090;9.754;2023-03-11T09:15:54;5.60;78.90
22966;DHT22;11649;48.090;9.754;2023-03-11T09:18:21;6.10;74.90
22966;DHT22;11649;48.090;9.754;2023-03-11T09:20:48;6.40;71.20
22966;DHT22;11649;48.090;9.754;2023-03-11T09:23:16;6.50;69.30
22966;DHT22;11649;48.090;9.754;2023-03-11T09:25:44;6.70;68.80
22966;DHT22;11649;48.090;9.754;2023-03-11T09:28:11;7.10;70.50
22966;DHT22;11649;48.090;9.754;2023-03-11T09:30:37;7.60;70.70
22966;DHT22;11649;48.090;9.754;2023-03-11T09:33:04;7.90;68.40
22966;DHT22;11649;48.090;9.754;2023-03-11T09:35:31;8.00;68.00
22966;DHT22;11649;48.090;9.754;2023-03-11T09:37:58;8.10;67.80
22966;DHT22;11649;48.090;9.754;2023-03-11T09:40:27;7.60;67.70
22966;DHT22;11649;48.090;9.754;2023-03-11T09:43:15;6.90;66.60
22966;DHT22;11649;48.090;9.754;2023-03-11T09:45:59;6.30;69.50
22966;DHT22;11649;48.090;9.754;2023-03-11T09:48:36;5.90;69.40
22966;DHT22;11649;48.090;9.754;2023-03-11T09:51:11;5.80;72.50
22966;DHT22;11649;48.090;9.754;2023-03-11T09:53:46;5.80;71.20
22966;DHT22;11649;48.090;9.754;2023-03-11T09:56:15;5.90;68.80
22966;DHT22;11649;48.090;9.754;2023-03-11T09:58:47;6.40;71.80
22966;DHT22;11649;48.090;9.754;2023-03-11T10:04:00;7.30;67.70
22966;DHT22;11649;48.090;9.754;2023-03-11T10:06:30;7.60;66.20
22966;DHT22;11649;48.090;9.754;2023-03-11T10:09:19;7.80;64.00
22966;DHT22;11649;48.090;9.754;2023-03-11T10:20:26;6.50;64.20
22966;DHT22;11649;48.090;9.754;2023-03-11T10:28:09;6.80;63.50
22966;DHT22;11649;48.090;9.754;2023-03-11T10:30:46;7.20;61.40
22966;DHT22;11649;48.090;9.754;2023-03-11T10:33:42;7.40;59.70
22966;DHT22;11649;48.090;9.754;2023-03-11T10:36:16;7.40;59.00
22966;DHT22;11649;48.090;9.754;2023-03-11T10:38:49;7.70;60.70
22966;DHT22;11649;48.090;9.754;2023-03-11T10:41:27;8.00;65.30
22966;DHT22;11649;48.090;9.754;2023-03-11T10:44:05;8.50;62.80
22966;DHT22;11649;48.090;9.754;2023-03-11T10:46:35;8.80;63.20
22966;DHT22;11649;48.090;9.754;2023-03-11T10:49:04;8.80;61.20
22966;DHT22;11649;48.090;9.754;2023-03-11T10:51:33;8.70;61.60
22966;DHT22;11649;48.090;9.754;2023-03-11T10:54:02;8.30;59.30
22966;DHT22;11649;48.090;9.754;2023-03-11T10:56:37;7.80;59.10
22966;DHT22;11649;48.090;9.754;2023-03-11T11:04:37;7.00;64.80
22966;DHT22;11649;48.090;9.754;2023-03-11T11:07:27;6.90;66.10
22966;DHT22;11649;48.090;9.754;2023-03-11T11:10:18;7.70;64.50
22966;DHT22;11649;48.090;9.754;2023-03-11T11:15:49;8.80;55.50
22966;DHT22;11649;48.090;9.754;2023-03-11T11:21:27;8.80;54.90
22966;DHT22;11649;48.090;9.754;2023-03-11T11:27:16;9.70;54.20
22966;DHT22;11649;48.090;9.754;2023-03-11T11:29:45;9.90;50.10
22966;DHT22;11649;48.090;9.754;2023-03-11T11:32:18;9.40;48.90
22966;DHT22;11649;48.090;9.754;2023-03-11T11:35:01;8.60;53.30
22966;DHT22;11649;48.090;9.754;2023-03-11T11:37:32;8.30;52.80
22966;DHT22;11649;48.090;9.754;2023-03-11T11:40:18;8.20;54.40
22966;DHT22;11649;48.090;9.754;2023-03-11T11:43:05;8.20;54.30
22966;DHT22;11649;48.090;9.754;2023-03-11T11:45:41;8.30;54.40
22966;DHT22;11649;48.090;9.754;2023-03-11T11:50:44;8.60;53.30
22966;DHT22;11649;48.090;9.754;2023-03-11T11:53:16;8.40;52.10
22966;DHT22;11649;48.090;9.754;2023-03-11T11:55:49;8.40;52.40
22966;DHT22;11649;48.090;9.754;2023-03-11T11:58:18;8.20;51.90
22966;DHT22;11649;48.090;9.754;2023-03-11T12:01:11;8.20;53.90
22966;DHT22;11649;48.090;9.754;2023-03-11T12:04:19;8.30;53.40
22966;DHT22;11649;48.090;9.754;2023-03-11T12:12:34;8.80;50.60
22966;DHT22;11649;48.090;9.754;2023-03-11T12:15:17;9.10;52.00
22966;DHT22;11649;48.090;9.754;2023-03-11T12:17:46;9.60;50.40
22966;DHT22;11649;48.090;9.754;2023-03-11T12:20:30;9.80;50.10
22966;DHT22;11649;48.090;9.754;2023-03-11T12:23:56;10.00;48.50
22966;DHT22;11649;48.090;9.754;2023-03-11T12:31:26;10.20;47.20
22966;DHT22;11649;48.090;9.754;2023-03-11T12:34:01;10.00;47.80
22966;DHT22;11649;48.090;9.754;2023-03-11T12:36:32;9.90;51.70
22966;DHT22;11649;48.090;9.754;2023-03-11T12:39:01;10.10;51.20
22966;DHT22;11649;48.090;9.754;2023-03-11T12:41:38;10.20;53.20
22966;DHT22;11649;48.090;9.754;2023-03-11T12:49:28;10.10;49.70
22966;DHT22;11649;48.090;9.754;2023-03-11T12:54:39;9.90;50.00
22966;DHT22;11649;48.090;9.754;2023-03-11T13:05:49;9.80;46.60
22966;DHT22;11649;48.090;9.754;2023-03-11T13:16:44;9.00;49.80
22966;DHT22;11649;48.090;9.754;2023-03-11T13:21:58;9.50;44.30
22966;DHT22;11649;48.090;9.754;2023-03-11T13:29:44;10.40;46.20
22966;DHT22;11649;48.090;9.754;2023-03-11T13:38:22;10.90;44.40
22966;DHT22;11649;48.090;9.754;2023-03-11T13:41:00;11.00;44.90
22966;DHT22;11649;48.090;9.754;2023-03-11T13:43:29;11.10;42.80
22966;DHT22;11649;48.090;9.754;2023-03-11T13:46:23;11.60;42.60
22966;DHT22;11649;48.090;9.754;2023-03-11T13:49:00;12.20;42.20
22966;DHT22;11649;48.090;9.754;2023-03-11T13:51:41;13.10;40.90
22966;DHT22;11649;48.090;9.754;2023-03-11T13:56:57;14.80;38.30
22966;DHT22;11649;48.090;9.754;2023-03-11T13:59:31;15.40;35.90
22966;DHT22;11649;48.090;9.754;2023-03-11T14:02:03;15.60;33.70
22966;DHT22;11649;48.090;9.754;2023-03-11T14:04:39;15.90;34.10
22966;DHT22;11649;48.090;9.754;2023-03-11T14:09:45;17.40;31.40
22966;DHT22;11649;48.090;9.754;2023-03-11T14:12:12;18.20;32.30
22966;DHT22;11649;48.090;9.754;2023-03-11T14:14:46;17.40;31.20
22966;DHT22;11649;48.090;9.754;2023-03-11T14:17:18;17.40;32.20
22966;DHT22;11649;48.090;9.754;2023-03-11T14:20:04;17.00;31.30
22966;DHT22;11649;48.090;9.754;2023-03-11T14:22:33;16.90;31.80
22966;DHT22;11649;48.090;9.754;2023-03-11T14:25:04;17.00;31.80
22966;DHT22;11649;48.090;9.754;2023-03-11T14:27:31;16.90;31.20
22966;DHT22;11649;48.090;9.754;2023-03-11T14:29:58;16.80;32.90
22966;DHT22;11649;48.090;9.754;2023-03-11T14:32:31;16.40;33.10
22966;DHT22;11649;48.090;9.754;2023-03-11T14:34:59;15.90;33.90
22966;DHT22;11649;48.090;9.754;2023-03-11T14:39:57;15.10;36.60
22966;DHT22;11649;48.090;9.754;2023-03-11T14:42:25;15.10;36.60
22966;DHT22;11649;48.090;9.754;2023-03-11T14:50:10;13.90;37.50
22966;DHT22;11649;48.090;9.754;2023-03-11T14:52:56;13.30;37.70
22966;DHT22;11649;48.090;9.754;2023-03-11T14:55:31;13.00;39.80
22966;DHT22;11649;48.090;9.754;2023-03-11T14:58:09;13.00;39.90
22966;DHT22;11649;48.090;9.754;2023-03-11T15:00:40;12.80;42.50
22966;DHT22;11649;48.090;9.754;2023-03-11T15:03:23;12.60;40.50
22966;DHT22;11649;48.090;9.754;2023-03-11T15:06:14;12.40;39.50
22966;DHT22;11649;48.090;9.754;2023-03-11T15:13:43;11.00;41.30
22966;DHT22;11649;48.090;9.754;2023-03-11T15:18:54;10.70;41.70
22966;DHT22;11649;48.090;9.754;2023-03-11T15:21:22;10.60;43.80
22966;DHT22;11649;48.090;9.754;2023-03-11T15:24:02;10.50;43.30
22966;DHT22;11649;48.090;9.754;2023-03-11T15:26:33;10.50;43.60
22966;DHT22;11649;48.090;9.754;2023-03-11T15:29:13;10.40;44.90
22966;DHT22;11649;48.090;9.754;2023-03-11T15:31:42;10.30;45.80
22966;DHT22;11649;48.090;9.754;2023-03-11T15:39:17;9.70;46.30
22966;DHT22;11649;48.090;9.754;2023-03-11T15:47:20;9.00;48.10
22966;DHT22;11649;48.090;9.754;2023-03-11T15:49:48;9.00;48.30
22966;DHT22;11649;48.090;9.754;2023-03-11T15:52:16;8.80;47.60
22966;DHT22;11649;48.090;9.754;2023-03-11T15:54:44;8.70;47.40
22966;DHT22;11649;48.090;9.754;2023-03-11T15:57:24;8.60;48.10
22966;DHT22;11649;48.090;9.754;2023-03-11T15:59:52;8.60;49.10
22966;DHT22;11649;48.090;9.754;2023-03-11T16:02:26;8.50;49.10
22966;DHT22;11649;48.090;9.754;2023-03-11T16:04:54;8.60;49.00
22966;DHT22;11649;48.090;9.754;2023-03-11T16:07:21;8.40;48.70
22966;DHT22;11649;48.090;9.754;2023-03-11T16:10:05;8.30;48.90
22966;DHT22;11649;48.090;9.754;2023-03-11T16:12:32;8.10;48.40
22966;DHT22;11649;48.090;9.754;2023-03-11T16:14:59;8.10;49.10
22966;DHT22;11649;48.090;9.754;2023-03-11T16:17:26;8.00;50.40
22966;DHT22;11649;48.090;9.754;2023-03-11T16:20:12;8.00;50.80
22966;DHT22;11649;48.090;9.754;2023-03-11T16:22:39;8.00;51.40
22966;DHT22;11649;48.090;9.754;2023-03-11T16:25:06;8.00;52.50
22966;DHT22;11649;48.090;9.754;2023-03-11T16:27:37;8.00;52.00
22966;DHT22;11649;48.090;9.754;2023-03-11T16:30:04;8.00;52.50
22966;DHT22;11649;48.090;9.754;2023-03-11T16:32:31;7.80;53.20
22966;DHT22;11649;48.090;9.754;2023-03-11T16:34:58;7.70;54.80
22966;DHT22;11649;48.090;9.754;2023-03-11T16:37:24;7.60;53.70
22966;DHT22;11649;48.090;9.754;2023-03-11T16:39:51;7.60;54.10
22966;DHT22;11649;48.090;9.754;2023-03-11T16:42:22;7.50;54.30
22966;DHT22;11649;48.090;9.754;2023-03-11T16:44:49;7.40;55.20
22966;DHT22;11649;48.090;9.754;2023-03-11T16:47:16;7.30;55.70
22966;DHT22;11649;48.090;9.754;2023-03-11T16:49:43;7.40;55.80
22966;DHT22;11649;48.090;9.754;2023-03-11T16:52:10;7.40;57.40
22966;DHT22;11649;48.090;9.754;2023-03-11T16:54:37;7.40;60.20
22966;DHT22;11649;48.090;9.754;2023-03-11T16:57:04;7.40;60.90
22966;DHT22;11649;48.090;9.754;2023-03-11T16:59:30;7.30;61.50
22966;DHT22;11649;48.090;9.754;2023-03-11T17:01:57;7.20;62.50
22966;DHT22;11649;48.090;9.754;2023-03-11T17:04:25;7.10;63.80
22966;DHT22;11649;48.090;9.754;2023-03-11T17:06:51;7.00;65.50
22966;DHT22;11649;48.090;9.754;2023-03-11T17:09:18;7.00;67.30
22966;DHT22;11649;48.090;9.754;2023-03-11T17:11:46;6.90;68.70
22966;DHT22;11649;48.090;9.754;2023-03-11T17:14:16;6.90;69.90
22966;DHT22;11649;48.090;9.754;2023-03-11T17:16:43;6.80;72.20
22966;DHT22;11649;48.090;9.754;2023-03-11T17:19:10;6.70;74.40
22966;DHT22;11649;48.090;9.754;2023-03-11T17:21:38;6.60;77.00
22966;DHT22;11649;48.090;9.754;2023-03-11T17:24:05;6.50;79.20
22966;DHT22;11649;48.090;9.754;2023-03-11T17:26:32;6.40;79.20
22966;DHT22;11649;48.090;9.754;2023-03-11T17:28:59;6.40;81.10
22966;DHT22;11649;48.090;9.754;2023-03-11T17:31:26;6.30;82.20
22966;DHT22;11649;48.090;9.754;2023-03-11T17:33:53;6.30;85.30
22966;DHT22;11649;48.090;9.754;2023-03-11T17:36:20;6.30;85.00
22966;DHT22;11649;48.090;9.754;2023-03-11T17:38:49;6.30;86.60
22966;DHT22;11649;48.090;9.754;2023-03-11T17:41:16;6.30;86.40
22966;DHT22;11649;48.090;9.754;2023-03-11T17:43:44;6.20;87.10
22966;DHT22;11649;48.090;9.754;2023-03-11T17:46:14;6.30;85.00
22966;DHT22;11649;48.090;9.754;2023-03-11T17:48:42;8.10;86.70
22966;DHT22;11649;48.090;9.754;2023-03-11T17:51:15;6.30;87.40
22966;DHT22;11649;48.090;9.754;2023-03-11T17:53:43;6.30;87.60
22966;DHT22;11649;48.090;9.754;2023-03-11T17:56:12;6.30;87.90
22966;DHT22;11649;48.090;9.754;2023-03-11T17:58:39;6.20;89.30
22966;DHT22;11649;48.090;9.754;2023-03-11T18:01:12;6.00;90.40